createdAt,value
2022-10-01T00:05:00.326Z,78.88
2022-10-01T00:10:02.050Z,78.45
2022-10-01T00:15:13.559Z,78.91
2022-10-01T00:20:18.155Z,79.10
2022-10-01T00:25:25.405Z,79.01
2022-10-01T00:30:31.914Z,79.25
2022-10-01T00:35:37.974Z,78.89
2022-10-01T00:40:42.329Z,79.67
2022-10-01T00:45:49.331Z,79.08
2022-10-01T00:50:53.809Z,79.82
2022-10-01T00:56:02.912Z,80.36
2022-10-01T01:01:04.692Z,82.22
2022-10-01T01:06:18.349Z,83.73
2022-10-01T01:11:58.542Z,84.98
2022-10-01T01:17:11.406Z,86.99
2022-10-01T01:22:16.510Z,87.46
2022-10-01T01:27:28.725Z,87.99
2022-10-01T01:32:42.834Z,88.25
2022-10-01T01:37:51.084Z,88.44
2022-10-01T01:42:57.547Z,89.48
2022-10-01T01:48:02.209Z,89.87
2022-10-01T01:53:09.330Z,89.92
2022-10-01T01:58:11.243Z,91.50
2022-10-01T02:03:15.209Z,92.39
2022-10-01T02:08:26.501Z,92.58
2022-10-01T02:13:48.236Z,93.44
2022-10-01T02:19:10.885Z,94.23
2022-10-01T02:24:24.710Z,95.30
2022-10-01T02:29:33.303Z,95.82
2022-10-01T02:34:36.847Z,96.40
2022-10-01T02:39:41.725Z,97.00
2022-10-01T02:44:45.341Z,98.21
2022-10-01T02:49:49.962Z,98.87
2022-10-01T02:54:57.184Z,99.49
2022-10-01T03:00:09.467Z,100.00
2022-10-01T03:05:14.710Z,100.00
2022-10-01T03:10:19.872Z,100.00
2022-10-01T03:15:26.282Z,100.00
2022-10-01T03:20:27.961Z,100.00
2022-10-01T03:25:29.624Z,100.00
2022-10-01T03:30:33.920Z,100.00
2022-10-01T03:35:37.961Z,100.00
2022-10-01T03:40:42.123Z,100.00
2022-10-01T03:45:44.482Z,100.00
2022-10-01T03:50:58.837Z,100.00
2022-10-01T03:56:05.030Z,100.00
2022-10-01T04:01:06.775Z,100.00
2022-10-01T04:06:08.503Z,100.00
2022-10-01T04:11:10.465Z,100.00
2022-10-01T04:16:15.798Z,100.00
2022-10-01T04:21:20.550Z,100.00
2022-10-01T04:26:25.968Z,100.00
2022-10-01T04:31:35.040Z,100.00
2022-10-01T04:36:39.801Z,100.00
2022-10-01T04:41:43.772Z,100.00
2022-10-01T04:46:50.191Z,100.00
2022-10-01T04:51:52.005Z,100.00
2022-10-01T04:56:58.328Z,100.00
2022-10-01T05:02:00.105Z,100.00
2022-10-01T05:07:01.924Z,100.00
2022-10-01T05:12:08.098Z,100.00
2022-10-01T05:17:09.921Z,100.00
2022-10-01T05:22:13.855Z,100.00
2022-10-01T05:27:20.086Z,100.00
2022-10-01T05:32:22.962Z,100.00
2022-10-01T05:37:24.711Z,100.00
2022-10-01T05:42:34.743Z,100.00
2022-10-01T05:47:42.459Z,100.00
2022-10-01T05:53:08.996Z,100.00
2022-10-01T05:58:16.821Z,100.00
2022-10-01T06:03:18.670Z,100.00
2022-10-01T06:08:28.722Z,100.00
2022-10-01T06:13:30.842Z,100.00
2022-10-01T06:18:34.607Z,100.00
2022-10-01T06:23:36.491Z,100.00
2022-10-01T06:28:41.316Z,100.00
2022-10-01T06:33:52.391Z,100.00
2022-10-01T06:39:04.592Z,100.00
2022-10-01T06:44:06.383Z,100.00
2022-10-01T06:49:08.193Z,100.00
2022-10-01T06:54:10.702Z,100.00
2022-10-01T06:59:12.364Z,100.00
2022-10-01T07:04:18.862Z,100.00
2022-10-01T07:09:26.717Z,100.00
2022-10-01T07:14:32.715Z,100.00
2022-10-01T07:19:34.426Z,100.00
2022-10-01T07:24:46.126Z,100.00
2022-10-01T07:29:59.097Z,100.00
2022-10-01T07:35:05.895Z,100.00
2022-10-01T07:40:10.452Z,100.00
2022-10-01T07:45:16.973Z,100.00
2022-10-01T07:50:23.298Z,100.00
2022-10-01T07:55:28.598Z,100.00
2022-10-01T08:00:34.387Z,100.00
2022-10-01T08:05:46.465Z,100.00
2022-10-01T08:10:50.972Z,100.00
2022-10-01T08:15:55.588Z,100.00
2022-10-01T08:21:02.185Z,100.00
2022-10-01T08:26:08.695Z,100.00
2022-10-01T08:31:10.831Z,100.00
2022-10-01T08:36:13.163Z,100.00
2022-10-01T08:41:34.992Z,100.00
2022-10-01T08:46:39.504Z,100.00
2022-10-01T08:51:42.455Z,100.00
2022-10-01T08:56:46.583Z,100.00
2022-10-01T09:01:49.253Z,100.00
2022-10-01T09:07:01.940Z,100.00
2022-10-01T09:12:31.759Z,100.00
2022-10-01T09:17:53.057Z,100.00
2022-10-01T09:23:20.859Z,100.00
2022-10-01T09:28:27.858Z,100.00
2022-10-01T09:33:38.227Z,100.00
2022-10-01T09:38:46.030Z,100.00
2022-10-01T09:43:50.253Z,100.00
2022-10-01T09:49:00.371Z,100.00
2022-10-01T09:54:05.104Z,100.00
2022-10-01T09:59:10.981Z,100.00
2022-10-01T10:04:15.556Z,100.00
2022-10-01T10:09:26.347Z,100.00
2022-10-01T10:14:39.127Z,100.00
2022-10-01T10:19:49.089Z,100.00
2022-10-01T10:24:55.210Z,99.91
2022-10-01T10:30:05.878Z,98.04
2022-10-01T10:35:17.545Z,94.84
2022-10-01T10:40:29.063Z,91.07
2022-10-01T10:45:37.476Z,89.34
2022-10-01T10:50:46.019Z,88.08
2022-10-01T10:56:01.164Z,87.81
2022-10-01T11:01:12.168Z,86.74
2022-10-01T11:06:19.474Z,87.29
2022-10-01T11:11:46.307Z,90.70
2022-10-01T11:16:53.961Z,94.18
2022-10-01T11:21:58.722Z,96.44
2022-10-01T11:27:11.173Z,98.97
2022-10-01T11:32:50.390Z,99.56
2022-10-01T11:38:32.230Z,100.00
2022-10-01T11:43:39.340Z,100.00
2022-10-01T11:48:41.825Z,100.00
2022-10-01T11:53:50.039Z,100.00
2022-10-01T11:59:01.223Z,100.00
2022-10-01T12:04:17.707Z,99.75
2022-10-01T12:09:37.524Z,98.86
2022-10-01T12:14:49.451Z,95.20
2022-10-01T12:19:58.276Z,93.36
2022-10-01T12:25:05.156Z,91.06
2022-10-01T12:30:20.727Z,85.54
2022-10-01T12:35:47.394Z,80.22
2022-10-01T12:40:53.278Z,75.95
2022-10-01T12:46:19.704Z,75.60
2022-10-01T12:51:33.160Z,75.32
2022-10-01T12:56:47.987Z,69.86
2022-10-01T13:01:56.116Z,74.22
2022-10-01T13:07:16.197Z,69.68
2022-10-01T13:12:43.562Z,61.97
2022-10-01T13:17:51.619Z,67.29
2022-10-01T13:23:09.895Z,60.15
2022-10-01T13:28:14.926Z,59.65
2022-10-01T13:33:23.282Z,56.24
2022-10-01T13:38:30.305Z,54.84
2022-10-01T13:43:37.519Z,51.94
2022-10-01T13:48:46.757Z,51.85
2022-10-01T13:54:00.569Z,51.46
2022-10-01T13:59:22.017Z,51.50
2022-10-01T14:04:38.025Z,51.45
2022-10-01T14:09:48.767Z,55.80
2022-10-01T14:15:15.895Z,60.68
2022-10-01T14:20:24.942Z,64.26
2022-10-01T14:25:54.370Z,65.78
2022-10-01T14:31:00.255Z,68.25
2022-10-01T14:36:28.571Z,71.41
2022-10-01T14:41:35.134Z,71.00
2022-10-01T14:46:38.410Z,71.08
2022-10-01T14:51:57.176Z,71.85
2022-10-01T14:56:59.261Z,72.49
2022-10-01T15:02:15.239Z,72.54
2022-10-01T15:07:18.021Z,71.16
2022-10-01T15:12:21.900Z,73.24
2022-10-01T15:17:27.099Z,72.87
2022-10-01T15:22:33.144Z,74.03
2022-10-01T15:27:37.759Z,74.58
2022-10-01T15:32:40.540Z,75.19
2022-10-01T15:37:50.276Z,75.00
2022-10-01T15:43:24.767Z,75.96
2022-10-01T15:48:49.623Z,76.14
2022-10-01T15:54:20.421Z,76.19
2022-10-01T15:59:24.416Z,76.39
2022-10-01T16:04:27.111Z,77.63
2022-10-01T16:09:29.748Z,77.80
2022-10-01T16:14:44.097Z,77.90
2022-10-01T16:19:48.189Z,79.58
2022-10-01T16:25:25.488Z,80.15
2022-10-01T16:30:32.647Z,81.88
2022-10-01T16:35:40.712Z,82.72
2022-10-01T16:40:44.151Z,84.32
2022-10-01T16:45:48.072Z,84.83
2022-10-01T16:50:54.204Z,85.91
2022-10-01T16:55:58.943Z,86.18
2022-10-01T17:01:07.603Z,86.81
2022-10-01T17:06:11.594Z,87.83
2022-10-01T17:11:16.466Z,88.07
2022-10-01T17:16:24.429Z,88.64
2022-10-01T17:21:33.787Z,89.07
2022-10-01T17:26:45.351Z,89.65
2022-10-01T17:31:53.371Z,89.89
2022-10-01T17:37:00.317Z,89.48
2022-10-01T17:42:02.078Z,89.54
2022-10-01T17:47:09.190Z,89.87
2022-10-01T17:52:11.168Z,90.71
2022-10-01T17:57:13.946Z,90.48
2022-10-01T18:02:39.943Z,91.26
2022-10-01T18:07:42.427Z,91.25
2022-10-01T18:12:44.542Z,92.13
2022-10-01T18:17:52.236Z,92.54
2022-10-01T18:22:56.939Z,92.81
2022-10-01T18:27:58.660Z,93.15
2022-10-01T18:33:03.776Z,93.23
2022-10-01T18:38:24.397Z,93.61
2022-10-01T18:43:31.103Z,94.35
2022-10-01T18:49:05.732Z,95.02
2022-10-01T18:54:26.489Z,94.84
2022-10-01T19:00:21.828Z,95.28
2022-10-01T19:05:45.968Z,95.56
2022-10-01T19:11:30.560Z,95.42
2022-10-01T19:16:35.184Z,95.80
2022-10-01T19:22:02.242Z,95.92
2022-10-01T19:27:13.617Z,96.88
2022-10-01T19:32:27.116Z,96.92
2022-10-01T19:37:34.028Z,97.18
2022-10-01T19:42:42.792Z,98.28
2022-10-01T19:47:50.822Z,98.03
2022-10-01T19:52:54.526Z,98.84
2022-10-01T19:57:58.691Z,98.82
2022-10-01T20:03:11.637Z,99.71
2022-10-01T20:08:24.943Z,100.00
2022-10-01T20:13:50.958Z,100.00
2022-10-01T20:19:08.870Z,100.00
2022-10-01T20:24:22.014Z,100.00
2022-10-01T20:29:26.247Z,100.00
2022-10-01T20:34:59.334Z,100.00
2022-10-01T20:40:25.242Z,100.00
2022-10-01T20:45:35.443Z,100.00
2022-10-01T20:50:46.777Z,100.00
2022-10-01T20:55:54.599Z,100.00
2022-10-01T21:01:07.012Z,100.00
2022-10-01T21:06:15.599Z,100.00
2022-10-01T21:11:21.351Z,100.00
2022-10-01T21:16:37.932Z,100.00
2022-10-01T21:22:17.124Z,100.00
2022-10-01T21:27:47.643Z,100.00
2022-10-01T21:32:53.301Z,100.00
2022-10-01T21:37:57.529Z,100.00
2022-10-01T21:43:14.876Z,100.00
2022-10-01T21:48:37.254Z,100.00
2022-10-01T21:53:43.753Z,100.00
2022-10-01T21:58:51.629Z,100.00
2022-10-01T22:04:25.805Z,100.00
2022-10-01T22:09:40.363Z,100.00
2022-10-01T22:14:47.717Z,100.00
2022-10-01T22:19:54.097Z,100.00
2022-10-01T22:25:03.012Z,100.00
2022-10-01T22:30:19.889Z,100.00
2022-10-01T22:35:38.948Z,100.00
2022-10-01T22:41:10.940Z,100.00
2022-10-01T22:46:31.427Z,100.00
2022-10-01T22:51:54.674Z,100.00
2022-10-01T22:57:03.248Z,100.00
2022-10-01T23:02:25.762Z,100.00
2022-10-01T23:07:41.374Z,100.00
2022-10-01T23:12:58.205Z,100.00
2022-10-01T23:18:15.083Z,100.00
2022-10-01T23:23:23.683Z,100.00
2022-10-01T23:29:27.329Z,100.00
2022-10-01T23:34:59.420Z,100.00
2022-10-01T23:40:07.761Z,100.00
2022-10-01T23:45:11.918Z,100.00
2022-10-01T23:50:31.880Z,100.00
2022-10-01T23:56:03.593Z,100.00
